sensor_id;sensor_type;location;lat;lon;timestamp;P1;durP1;ratioP1;P2;durP2;ratioP2
7917;SDS011;4004;42.624;23.386;2023-08-12T00:00:01;3.57;;;2.87;;
7917;SDS011;4004;42.624;23.386;2023-08-12T00:02:36;4.90;;;3.03;;
7917;SDS011;4004;42.624;23.386;2023-08-12T00:05:03;4.23;;;3.13;;
7917;SDS011;4004;42.624;23.386;2023-08-12T00:07:30;5.17;;;3.27;;
7917;SDS011;4004;42.624;23.386;2023-08-12T00:09:59;4.90;;;2.93;;
7917;SDS011;4004;42.624;23.386;2023-08-12T00:12:26;3.30;;;2.90;;
7917;SDS011;4004;42.624;23.386;2023-08-12T00:14:53;3.40;;;2.80;;
7917;SDS011;4004;42.624;23.386;2023-08-12T00:17:19;5.97;;;2.93;;
7917;SDS011;4004;42.624;23.386;2023-08-12T00:19:46;3.87;;;3.50;;
7917;SDS011;4004;42.624;23.386;2023-08-12T00:22:13;5.10;;;3.50;;
7917;SDS011;4004;42.624;23.386;2023-08-12T00:24:40;5.17;;;3.10;;
7917;SDS011;4004;42.624;23.386;2023-08-12T00:27:08;4.80;;;3.73;;
7917;SDS011;4004;42.624;23.386;2023-08-12T00:29:35;3.40;;;3.10;;
7917;SDS011;4004;42.624;23.386;2023-08-12T00:32:01;4.00;;;3.30;;
7917;SDS011;4004;42.624;23.386;2023-08-12T00:34:29;3.37;;;2.80;;
7917;SDS011;4004;42.624;23.386;2023-08-12T00:36:55;5.47;;;3.00;;
7917;SDS011;4004;42.624;23.386;2023-08-12T00:39:22;3.87;;;3.30;;
7917;SDS011;4004;42.624;23.386;2023-08-12T00:41:49;7.97;;;3.60;;
7917;SDS011;4004;42.624;23.386;2023-08-12T00:44:17;3.47;;;3.00;;
7917;SDS011;4004;42.624;23.386;2023-08-12T00:46:44;4.27;;;3.20;;
7917;SDS011;4004;42.624;23.386;2023-08-12T00:49:11;4.57;;;3.23;;
7917;SDS011;4004;42.624;23.386;2023-08-12T00:51:39;3.73;;;2.70;;
7917;SDS011;4004;42.624;23.386;2023-08-12T00:54:08;4.17;;;3.17;;
7917;SDS011;4004;42.624;23.386;2023-08-12T00:56:40;3.77;;;3.07;;
7917;SDS011;4004;42.624;23.386;2023-08-12T00:59:07;5.17;;;3.37;;
7917;SDS011;4004;42.624;23.386;2023-08-12T01:01:37;6.33;;;3.30;;
7917;SDS011;4004;42.624;23.386;2023-08-12T01:04:06;4.50;;;3.20;;
7917;SDS011;4004;42.624;23.386;2023-08-12T01:06:33;3.70;;;3.13;;
7917;SDS011;4004;42.624;23.386;2023-08-12T01:09:00;5.50;;;3.43;;
7917;SDS011;4004;42.624;23.386;2023-08-12T01:11:32;3.70;;;3.40;;
7917;SDS011;4004;42.624;23.386;2023-08-12T01:14:04;3.90;;;3.03;;
7917;SDS011;4004;42.624;23.386;2023-08-12T01:16:37;3.97;;;3.03;;
7917;SDS011;4004;42.624;23.386;2023-08-12T01:19:09;5.33;;;3.50;;
7917;SDS011;4004;42.624;23.386;2023-08-12T01:21:43;3.93;;;3.07;;
7917;SDS011;4004;42.624;23.386;2023-08-12T01:24:11;3.13;;;2.90;;
7917;SDS011;4004;42.624;23.386;2023-08-12T01:26:38;4.20;;;3.13;;
7917;SDS011;4004;42.624;23.386;2023-08-12T01:29:05;3.63;;;3.10;;
7917;SDS011;4004;42.624;23.386;2023-08-12T01:31:34;3.60;;;3.17;;
7917;SDS011;4004;42.624;23.386;2023-08-12T01:34:09;4.33;;;3.10;;
7917;SDS011;4004;42.624;23.386;2023-08-12T01:36:39;3.53;;;2.97;;
7917;SDS011;4004;42.624;23.386;2023-08-12T01:39:09;3.57;;;3.20;;
7917;SDS011;4004;42.624;23.386;2023-08-12T01:41:38;6.13;;;3.30;;
7917;SDS011;4004;42.624;23.386;2023-08-12T01:44:05;7.50;;;3.53;;
7917;SDS011;4004;42.624;23.386;2023-08-12T01:46:33;5.07;;;3.50;;
7917;SDS011;4004;42.624;23.386;2023-08-12T01:48:59;3.10;;;2.90;;
7917;SDS011;4004;42.624;23.386;2023-08-12T01:51:26;6.33;;;3.40;;
7917;SDS011;4004;42.624;23.386;2023-08-12T01:53:53;3.83;;;3.30;;
7917;SDS011;4004;42.624;23.386;2023-08-12T01:56:19;5.40;;;3.20;;
7917;SDS011;4004;42.624;23.386;2023-08-12T01:58:48;5.00;;;2.83;;
7917;SDS011;4004;42.624;23.386;2023-08-12T02:01:14;7.50;;;3.63;;
7917;SDS011;4004;42.624;23.386;2023-08-12T02:03:41;6.70;;;3.30;;
7917;SDS011;4004;42.624;23.386;2023-08-12T02:06:08;4.13;;;3.40;;
7917;SDS011;4004;42.624;23.386;2023-08-12T02:08:34;5.20;;;3.20;;
7917;SDS011;4004;42.624;23.386;2023-08-12T02:11:01;6.50;;;3.53;;
7917;SDS011;4004;42.624;23.386;2023-08-12T02:13:29;3.20;;;2.90;;
7917;SDS011;4004;42.624;23.386;2023-08-12T02:15:57;4.83;;;3.27;;
7917;SDS011;4004;42.624;23.386;2023-08-12T02:18:24;3.63;;;3.20;;
7917;SDS011;4004;42.624;23.386;2023-08-12T02:20:51;8.67;;;3.33;;
7917;SDS011;4004;42.624;23.386;2023-08-12T02:23:17;3.93;;;3.20;;
7917;SDS011;4004;42.624;23.386;2023-08-12T02:25:44;4.67;;;3.00;;
7917;SDS011;4004;42.624;23.386;2023-08-12T02:28:11;2.90;;;2.70;;
7917;SDS011;4004;42.624;23.386;2023-08-12T02:30:38;4.50;;;2.80;;
7917;SDS011;4004;42.624;23.386;2023-08-12T02:33:06;3.63;;;2.90;;
7917;SDS011;4004;42.624;23.386;2023-08-12T02:35:32;3.87;;;3.30;;
7917;SDS011;4004;42.624;23.386;2023-08-12T02:37:59;3.43;;;3.13;;
7917;SDS011;4004;42.624;23.386;2023-08-12T02:40:26;4.27;;;3.50;;
7917;SDS011;4004;42.624;23.386;2023-08-12T02:42:53;3.93;;;3.57;;
7917;SDS011;4004;42.624;23.386;2023-08-12T02:45:20;5.90;;;3.50;;
7917;SDS011;4004;42.624;23.386;2023-08-12T02:47:46;6.23;;;4.13;;
7917;SDS011;4004;42.624;23.386;2023-08-12T02:50:14;6.53;;;3.33;;
7917;SDS011;4004;42.624;23.386;2023-08-12T02:52:41;3.67;;;3.27;;
7917;SDS011;4004;42.624;23.386;2023-08-12T02:55:08;4.03;;;3.37;;
7917;SDS011;4004;42.624;23.386;2023-08-12T02:57:35;4.00;;;3.63;;
7917;SDS011;4004;42.624;23.386;2023-08-12T03:00:02;9.47;;;4.33;;
7917;SDS011;4004;42.624;23.386;2023-08-12T03:02:30;4.13;;;3.40;;
7917;SDS011;4004;42.624;23.386;2023-08-12T03:04:57;4.67;;;3.30;;
7917;SDS011;4004;42.624;23.386;2023-08-12T03:07:25;5.53;;;3.60;;
7917;SDS011;4004;42.624;23.386;2023-08-12T03:09:52;3.70;;;3.37;;
7917;SDS011;4004;42.624;23.386;2023-08-12T03:12:18;5.60;;;3.27;;
7917;SDS011;4004;42.624;23.386;2023-08-12T03:14:45;5.67;;;3.37;;
7917;SDS011;4004;42.624;23.386;2023-08-12T03:17:12;7.30;;;3.50;;
7917;SDS011;4004;42.624;23.386;2023-08-12T03:19:39;4.83;;;3.40;;
7917;SDS011;4004;42.624;23.386;2023-08-12T03:22:05;7.80;;;3.70;;
7917;SDS011;4004;42.624;23.386;2023-08-12T03:24:34;4.60;;;3.40;;
7917;SDS011;4004;42.624;23.386;2023-08-12T03:27:00;5.00;;;3.30;;
7917;SDS011;4004;42.624;23.386;2023-08-12T03:29:27;3.70;;;3.30;;
7917;SDS011;4004;42.624;23.386;2023-08-12T03:31:54;4.67;;;3.07;;
7917;SDS011;4004;42.624;23.386;2023-08-12T03:34:20;5.97;;;3.30;;
7917;SDS011;4004;42.624;23.386;2023-08-12T03:36:47;7.43;;;3.50;;
7917;SDS011;4004;42.624;23.386;2023-08-12T03:39:15;6.20;;;3.13;;
7917;SDS011;4004;42.624;23.386;2023-08-12T03:41:43;6.67;;;3.13;;
7917;SDS011;4004;42.624;23.386;2023-08-12T03:44:10;3.60;;;3.27;;
7917;SDS011;4004;42.624;23.386;2023-08-12T03:46:37;12.60;;;3.70;;
7917;SDS011;4004;42.624;23.386;2023-08-12T03:49:04;7.10;;;3.40;;
7917;SDS011;4004;42.624;23.386;2023-08-12T03:51:31;7.17;;;3.57;;
7917;SDS011;4004;42.624;23.386;2023-08-12T03:53:57;5.37;;;3.30;;
7917;SDS011;4004;42.624;23.386;2023-08-12T03:56:24;8.77;;;3.27;;
7917;SDS011;4004;42.624;23.386;2023-08-12T03:58:53;5.03;;;3.70;;
7917;SDS011;4004;42.624;23.386;2023-08-12T04:01:19;11.00;;;7.13;;
7917;SDS011;4004;42.624;23.386;2023-08-12T04:03:46;10.27;;;6.77;;
7917;SDS011;4004;42.624;23.386;2023-08-12T04:06:13;10.07;;;4.57;;
7917;SDS011;4004;42.624;23.386;2023-08-12T04:08:40;11.30;;;4.80;;
7917;SDS011;4004;42.624;23.386;2023-08-12T04:11:07;10.27;;;3.67;;
7917;SDS011;4004;42.624;23.386;2023-08-12T04:13:34;14.80;;;3.17;;
7917;SDS011;4004;42.624;23.386;2023-08-12T04:16:02;7.60;;;3.00;;
7917;SDS011;4004;42.624;23.386;2023-08-12T04:18:29;5.93;;;2.63;;
7917;SDS011;4004;42.624;23.386;2023-08-12T04:20:56;5.60;;;2.20;;
7917;SDS011;4004;42.624;23.386;2023-08-12T04:23:22;2.47;;;2.27;;
7917;SDS011;4004;42.624;23.386;2023-08-12T04:25:49;5.47;;;2.70;;
7917;SDS011;4004;42.624;23.386;2023-08-12T04:28:18;4.70;;;2.40;;
7917;SDS011;4004;42.624;23.386;2023-08-12T04:30:46;5.60;;;2.57;;
7917;SDS011;4004;42.624;23.386;2023-08-12T04:33:17;5.07;;;2.80;;
7917;SDS011;4004;42.624;23.386;2023-08-12T04:35:45;6.70;;;2.27;;
7917;SDS011;4004;42.624;23.386;2023-08-12T04:38:12;6.60;;;2.83;;
7917;SDS011;4004;42.624;23.386;2023-08-12T04:40:38;3.07;;;2.43;;
7917;SDS011;4004;42.624;23.386;2023-08-12T04:43:06;6.37;;;2.27;;
7917;SDS011;4004;42.624;23.386;2023-08-12T04:45:33;3.90;;;2.37;;
7917;SDS011;4004;42.624;23.386;2023-08-12T04:48:00;6.50;;;2.50;;
7917;SDS011;4004;42.624;23.386;2023-08-12T04:50:30;8.67;;;3.10;;
7917;SDS011;4004;42.624;23.386;2023-08-12T04:52:59;4.30;;;2.10;;
7917;SDS011;4004;42.624;23.386;2023-08-12T04:55:26;2.30;;;2.10;;
7917;SDS011;4004;42.624;23.386;2023-08-12T04:57:53;6.13;;;2.50;;
7917;SDS011;4004;42.624;23.386;2023-08-12T05:00:20;5.90;;;2.30;;
7917;SDS011;4004;42.624;23.386;2023-08-12T05:02:47;4.30;;;2.30;;
7917;SDS011;4004;42.624;23.386;2023-08-12T05:05:14;6.07;;;2.57;;
7917;SDS011;4004;42.624;23.386;2023-08-12T05:07:42;4.13;;;2.33;;
7917;SDS011;4004;42.624;23.386;2023-08-12T05:10:13;3.20;;;2.37;;
7917;SDS011;4004;42.624;23.386;2023-08-12T05:12:40;3.63;;;2.10;;
7917;SDS011;4004;42.624;23.386;2023-08-12T05:15:08;5.30;;;2.40;;
7917;SDS011;4004;42.624;23.386;2023-08-12T05:17:35;7.37;;;2.70;;
7917;SDS011;4004;42.624;23.386;2023-08-12T05:20:02;2.80;;;2.30;;
7917;SDS011;4004;42.624;23.386;2023-08-12T05:22:29;5.07;;;2.37;;
7917;SDS011;4004;42.624;23.386;2023-08-12T05:24:58;2.90;;;2.23;;
7917;SDS011;4004;42.624;23.386;2023-08-12T05:27:24;6.57;;;2.37;;
7917;SDS011;4004;42.624;23.386;2023-08-12T05:29:51;6.13;;;2.60;;
7917;SDS011;4004;42.624;23.386;2023-08-12T05:32:18;5.13;;;2.20;;
7917;SDS011;4004;42.624;23.386;2023-08-12T05:34:44;4.60;;;2.10;;
7917;SDS011;4004;42.624;23.386;2023-08-12T05:37:11;3.03;;;2.27;;
7917;SDS011;4004;42.624;23.386;2023-08-12T05:39:38;2.47;;;2.27;;
7917;SDS011;4004;42.624;23.386;2023-08-12T05:42:06;7.33;;;2.70;;
7917;SDS011;4004;42.624;23.386;2023-08-12T05:44:33;6.17;;;2.93;;
7917;SDS011;4004;42.624;23.386;2023-08-12T05:47:00;5.20;;;3.30;;
7917;SDS011;4004;42.624;23.386;2023-08-12T05:49:26;4.90;;;2.70;;
7917;SDS011;4004;42.624;23.386;2023-08-12T05:51:53;4.20;;;2.40;;
7917;SDS011;4004;42.624;23.386;2023-08-12T05:54:20;12.87;;;3.20;;
7917;SDS011;4004;42.624;23.386;2023-08-12T05:56:46;6.00;;;3.03;;
7917;SDS011;4004;42.624;23.386;2023-08-12T05:59:14;9.57;;;2.73;;
7917;SDS011;4004;42.624;23.386;2023-08-12T06:01:41;5.10;;;2.23;;
7917;SDS011;4004;42.624;23.386;2023-08-12T06:04:08;12.40;;;3.10;;
7917;SDS011;4004;42.624;23.386;2023-08-12T06:06:35;3.87;;;2.30;;
7917;SDS011;4004;42.624;23.386;2023-08-12T06:09:02;4.27;;;2.30;;
7917;SDS011;4004;42.624;23.386;2023-08-12T06:11:28;2.67;;;2.20;;
7917;SDS011;4004;42.624;23.386;2023-08-12T06:13:55;2.83;;;2.27;;
7917;SDS011;4004;42.624;23.386;2023-08-12T06:16:23;5.47;;;2.27;;
7917;SDS011;4004;42.624;23.386;2023-08-12T06:18:50;6.27;;;2.50;;
7917;SDS011;4004;42.624;23.386;2023-08-12T06:21:17;8.33;;;2.23;;
7917;SDS011;4004;42.624;23.386;2023-08-12T06:23:44;5.13;;;2.20;;
7917;SDS011;4004;42.624;23.386;2023-08-12T06:26:11;6.33;;;2.33;;
7917;SDS011;4004;42.624;23.386;2023-08-12T06:28:37;12.37;;;2.30;;
7917;SDS011;4004;42.624;23.386;2023-08-12T06:31:04;3.63;;;2.07;;
7917;SDS011;4004;42.624;23.386;2023-08-12T06:33:32;6.27;;;2.10;;
7917;SDS011;4004;42.624;23.386;2023-08-12T06:35:59;5.53;;;2.00;;
7917;SDS011;4004;42.624;23.386;2023-08-12T06:38:26;5.23;;;2.77;;
7917;SDS011;4004;42.624;23.386;2023-08-12T06:40:54;8.40;;;2.80;;
7917;SDS011;4004;42.624;23.386;2023-08-12T06:43:20;8.83;;;2.17;;
7917;SDS011;4004;42.624;23.386;2023-08-12T06:45:47;8.40;;;3.00;;
7917;SDS011;4004;42.624;23.386;2023-08-12T06:48:14;7.43;;;2.60;;
7917;SDS011;4004;42.624;23.386;2023-08-12T06:50:42;8.27;;;2.60;;
7917;SDS011;4004;42.624;23.386;2023-08-12T06:53:09;5.73;;;2.40;;
7917;SDS011;4004;42.624;23.386;2023-08-12T06:55:36;9.17;;;4.43;;
7917;SDS011;4004;42.624;23.386;2023-08-12T06:58:03;7.53;;;2.80;;
7917;SDS011;4004;42.624;23.386;2023-08-12T07:00:30;4.23;;;2.30;;
7917;SDS011;4004;42.624;23.386;2023-08-12T07:02:56;5.47;;;3.37;;
7917;SDS011;4004;42.624;23.386;2023-08-12T07:05:23;9.20;;;2.80;;
7917;SDS011;4004;42.624;23.386;2023-08-12T07:07:51;8.10;;;2.40;;
7917;SDS011;4004;42.624;23.386;2023-08-12T07:10:18;7.83;;;3.10;;
7917;SDS011;4004;42.624;23.386;2023-08-12T07:12:45;9.63;;;2.97;;
7917;SDS011;4004;42.624;23.386;2023-08-12T07:15:11;6.50;;;2.40;;
7917;SDS011;4004;42.624;23.386;2023-08-12T07:17:38;10.60;;;2.90;;
7917;SDS011;4004;42.624;23.386;2023-08-12T07:20:06;5.20;;;2.40;;
7917;SDS011;4004;42.624;23.386;2023-08-12T07:22:33;9.53;;;2.70;;
7917;SDS011;4004;42.624;23.386;2023-08-12T07:25:02;10.83;;;2.57;;
7917;SDS011;4004;42.624;23.386;2023-08-12T07:27:28;8.03;;;2.70;;
7917;SDS011;4004;42.624;23.386;2023-08-12T07:29:55;4.23;;;2.70;;
7917;SDS011;4004;42.624;23.386;2023-08-12T07:32:22;5.93;;;2.57;;
7917;SDS011;4004;42.624;23.386;2023-08-12T07:34:49;5.50;;;2.57;;
7917;SDS011;4004;42.624;23.386;2023-08-12T07:37:15;4.20;;;2.77;;
7917;SDS011;4004;42.624;23.386;2023-08-12T07:39:42;4.70;;;2.60;;
7917;SDS011;4004;42.624;23.386;2023-08-12T07:42:10;6.20;;;2.70;;
7917;SDS011;4004;42.624;23.386;2023-08-12T07:44:37;9.43;;;3.00;;
7917;SDS011;4004;42.624;23.386;2023-08-12T07:47:04;5.33;;;2.90;;
7917;SDS011;4004;42.624;23.386;2023-08-12T07:49:31;5.40;;;2.50;;
7917;SDS011;4004;42.624;23.386;2023-08-12T07:51:58;5.10;;;2.33;;
7917;SDS011;4004;42.624;23.386;2023-08-12T07:54:24;4.13;;;3.67;;
7917;SDS011;4004;42.624;23.386;2023-08-12T07:56:51;2.80;;;2.30;;
7917;SDS011;4004;42.624;23.386;2023-08-12T07:59:20;2.97;;;2.47;;
7917;SDS011;4004;42.624;23.386;2023-08-12T08:01:46;5.93;;;2.63;;
7917;SDS011;4004;42.624;23.386;2023-08-12T08:04:13;8.27;;;4.73;;
7917;SDS011;4004;42.624;23.386;2023-08-12T08:06:40;4.40;;;3.20;;
7917;SDS011;4004;42.624;23.386;2023-08-12T08:09:07;5.30;;;2.30;;
7917;SDS011;4004;42.624;23.386;2023-08-12T08:11:34;3.37;;;2.90;;
7917;SDS011;4004;42.624;23.386;2023-08-12T08:14:00;4.83;;;2.70;;
7917;SDS011;4004;42.624;23.386;2023-08-12T08:16:28;7.80;;;2.73;;
7917;SDS011;4004;42.624;23.386;2023-08-12T08:18:55;10.37;;;2.90;;
7917;SDS011;4004;42.624;23.386;2023-08-12T08:21:22;2.63;;;2.20;;
7917;SDS011;4004;42.624;23.386;2023-08-12T08:23:49;8.93;;;2.70;;
7917;SDS011;4004;42.624;23.386;2023-08-12T08:26:16;2.70;;;2.20;;
7917;SDS011;4004;42.624;23.386;2023-08-12T08:28:43;6.17;;;2.47;;
7917;SDS011;4004;42.624;23.386;2023-08-12T08:31:10;4.80;;;2.60;;
7917;SDS011;4004;42.624;23.386;2023-08-12T08:33:38;4.57;;;2.67;;
7917;SDS011;4004;42.624;23.386;2023-08-12T08:36:05;3.10;;;2.53;;
7917;SDS011;4004;42.624;23.386;2023-08-12T08:38:32;2.80;;;2.23;;
7917;SDS011;4004;42.624;23.386;2023-08-12T08:40:59;7.33;;;2.37;;
7917;SDS011;4004;42.624;23.386;2023-08-12T08:43:27;3.23;;;2.00;;
7917;SDS011;4004;42.624;23.386;2023-08-12T08:45:54;3.10;;;2.10;;
7917;SDS011;4004;42.624;23.386;2023-08-12T08:48:21;3.67;;;2.20;;
7917;SDS011;4004;42.624;23.386;2023-08-12T08:50:50;3.10;;;2.50;;
7917;SDS011;4004;42.624;23.386;2023-08-12T08:53:17;4.27;;;2.43;;
7917;SDS011;4004;42.624;23.386;2023-08-12T08:55:45;7.10;;;2.60;;
7917;SDS011;4004;42.624;23.386;2023-08-12T08:58:12;8.83;;;3.40;;
7917;SDS011;4004;42.624;23.386;2023-08-12T09:00:39;3.57;;;2.60;;
7917;SDS011;4004;42.624;23.386;2023-08-12T09:03:07;4.30;;;3.30;;
7917;SDS011;4004;42.624;23.386;2023-08-12T09:05:34;4.63;;;2.57;;
7917;SDS011;4004;42.624;23.386;2023-08-12T09:08:06;4.87;;;2.50;;
7917;SDS011;4004;42.624;23.386;2023-08-12T09:10:36;5.13;;;2.33;;
7917;SDS011;4004;42.624;23.386;2023-08-12T09:13:05;5.63;;;2.37;;
7917;SDS011;4004;42.624;23.386;2023-08-12T09:15:33;5.73;;;2.63;;
7917;SDS011;4004;42.624;23.386;2023-08-12T09:18:00;6.63;;;2.30;;
7917;SDS011;4004;42.624;23.386;2023-08-12T09:20:27;2.93;;;2.03;;
7917;SDS011;4004;42.624;23.386;2023-08-12T09:22:57;3.73;;;2.50;;
7917;SDS011;4004;42.624;23.386;2023-08-12T09:25:26;3.80;;;2.30;;
7917;SDS011;4004;42.624;23.386;2023-08-12T09:27:54;3.37;;;2.60;;
7917;SDS011;4004;42.624;23.386;2023-08-12T09:30:25;2.70;;;2.10;;
7917;SDS011;4004;42.624;23.386;2023-08-12T09:32:58;7.43;;;2.30;;
7917;SDS011;4004;42.624;23.386;2023-08-12T09:35:31;3.10;;;2.30;;
7917;SDS011;4004;42.624;23.386;2023-08-12T09:38:00;3.43;;;2.57;;
7917;SDS011;4004;42.624;23.386;2023-08-12T09:40:30;7.93;;;2.77;;
7917;SDS011;4004;42.624;23.386;2023-08-12T09:42:57;7.10;;;2.77;;
7917;SDS011;4004;42.624;23.386;2023-08-12T09:45:24;4.63;;;2.60;;
7917;SDS011;4004;42.624;23.386;2023-08-12T09:47:52;3.53;;;2.20;;
7917;SDS011;4004;42.624;23.386;2023-08-12T09:50:20;4.33;;;2.20;;
7917;SDS011;4004;42.624;23.386;2023-08-12T09:52:48;3.03;;;2.40;;
7917;SDS011;4004;42.624;23.386;2023-08-12T09:55:17;6.70;;;2.60;;
7917;SDS011;4004;42.624;23.386;2023-08-12T09:57:47;3.07;;;2.27;;
7917;SDS011;4004;42.624;23.386;2023-08-12T10:00:17;4.37;;;2.33;;
7917;SDS011;4004;42.624;23.386;2023-08-12T10:02:45;5.83;;;2.67;;
7917;SDS011;4004;42.624;23.386;2023-08-12T10:05:16;5.27;;;2.60;;
7917;SDS011;4004;42.624;23.386;2023-08-12T10:07:47;3.17;;;2.30;;
7917;SDS011;4004;42.624;23.386;2023-08-12T10:10:15;4.53;;;2.50;;
7917;SDS011;4004;42.624;23.386;2023-08-12T10:12:42;3.53;;;2.00;;
7917;SDS011;4004;42.624;23.386;2023-08-12T10:15:10;3.00;;;2.50;;
7917;SDS011;4004;42.624;23.386;2023-08-12T10:17:38;1.90;;;1.77;;
7917;SDS011;4004;42.624;23.386;2023-08-12T10:20:07;5.83;;;2.37;;
7917;SDS011;4004;42.624;23.386;2023-08-12T10:22:35;6.13;;;2.30;;
7917;SDS011;4004;42.624;23.386;2023-08-12T10:25:04;1.97;;;1.80;;
7917;SDS011;4004;42.624;23.386;2023-08-12T10:27:34;8.00;;;2.27;;
7917;SDS011;4004;42.624;23.386;2023-08-12T10:30:03;5.30;;;2.20;;
7917;SDS011;4004;42.624;23.386;2023-08-12T10:32:32;3.97;;;2.20;;
7917;SDS011;4004;42.624;23.386;2023-08-12T10:34:59;9.87;;;3.37;;
7917;SDS011;4004;42.624;23.386;2023-08-12T10:37:30;2.63;;;2.10;;
7917;SDS011;4004;42.624;23.386;2023-08-12T10:39:58;2.40;;;1.93;;
7917;SDS011;4004;42.624;23.386;2023-08-12T10:42:40;2.30;;;2.10;;
7917;SDS011;4004;42.624;23.386;2023-08-12T10:45:08;4.13;;;2.20;;
7917;SDS011;4004;42.624;23.386;2023-08-12T10:47:41;3.57;;;2.20;;
7917;SDS011;4004;42.624;23.386;2023-08-12T10:50:18;3.27;;;2.07;;
7917;SDS011;4004;42.624;23.386;2023-08-12T10:52:45;2.20;;;2.00;;
7917;SDS011;4004;42.624;23.386;2023-08-12T10:55:16;4.67;;;2.10;;
7917;SDS011;4004;42.624;23.386;2023-08-12T10:57:44;4.40;;;2.00;;
7917;SDS011;4004;42.624;23.386;2023-08-12T11:00:11;3.30;;;2.20;;
7917;SDS011;4004;42.624;23.386;2023-08-12T11:02:43;3.50;;;2.00;;
7917;SDS011;4004;42.624;23.386;2023-08-12T11:05:11;1.93;;;1.70;;
7917;SDS011;4004;42.624;23.386;2023-08-12T11:07:40;5.27;;;2.20;;
7917;SDS011;4004;42.624;23.386;2023-08-12T11:10:12;4.90;;;2.20;;
7917;SDS011;4004;42.624;23.386;2023-08-12T11:12:41;4.60;;;1.90;;
7917;SDS011;4004;42.624;23.386;2023-08-12T11:15:12;6.93;;;2.70;;
7917;SDS011;4004;42.624;23.386;2023-08-12T11:17:39;2.43;;;2.20;;
7917;SDS011;4004;42.624;23.386;2023-08-12T11:20:09;4.40;;;1.83;;
7917;SDS011;4004;42.624;23.386;2023-08-12T11:22:38;2.40;;;1.90;;
7917;SDS011;4004;42.624;23.386;2023-08-12T11:25:07;3.10;;;2.10;;
7917;SDS011;4004;42.624;23.386;2023-08-12T11:27:39;3.40;;;2.10;;
7917;SDS011;4004;42.624;23.386;2023-08-12T11:30:07;2.30;;;2.00;;
7917;SDS011;4004;42.624;23.386;2023-08-12T11:32:36;5.10;;;2.20;;
7917;SDS011;4004;42.624;23.386;2023-08-12T11:35:03;4.57;;;2.17;;
7917;SDS011;4004;42.624;23.386;2023-08-12T11:37:33;6.77;;;1.60;;
7917;SDS011;4004;42.624;23.386;2023-08-12T11:40:02;3.57;;;1.77;;
7917;SDS011;4004;42.624;23.386;2023-08-12T11:42:29;2.97;;;1.80;;
7917;SDS011;4004;42.624;23.386;2023-08-12T11:44:56;2.20;;;1.60;;
7917;SDS011;4004;42.624;23.386;2023-08-12T11:47:23;2.20;;;1.70;;
7917;SDS011;4004;42.624;23.386;2023-08-12T11:49:51;3.07;;;1.97;;
7917;SDS011;4004;42.624;23.386;2023-08-12T11:52:18;3.00;;;1.30;;
7917;SDS011;4004;42.624;23.386;2023-08-12T11:54:47;3.87;;;1.50;;
7917;SDS011;4004;42.624;23.386;2023-08-12T11:57:15;1.40;;;1.23;;
7917;SDS011;4004;42.624;23.386;2023-08-12T11:59:42;2.03;;;1.30;;
7917;SDS011;4004;42.624;23.386;2023-08-12T12:02:09;2.80;;;1.60;;
7917;SDS011;4004;42.624;23.386;2023-08-12T12:04:36;2.00;;;1.50;;
7917;SDS011;4004;42.624;23.386;2023-08-12T12:07:03;2.17;;;1.53;;
7917;SDS011;4004;42.624;23.386;2023-08-12T12:09:43;9.30;;;1.47;;
7917;SDS011;4004;42.624;23.386;2023-08-12T12:12:11;1.70;;;1.30;;
7917;SDS011;4004;42.624;23.386;2023-08-12T12:14:39;5.20;;;1.40;;
7917;SDS011;4004;42.624;23.386;2023-08-12T12:17:07;3.73;;;1.50;;
7917;SDS011;4004;42.624;23.386;2023-08-12T12:19:35;1.47;;;1.37;;
7917;SDS011;4004;42.624;23.386;2023-08-12T12:22:03;1.40;;;1.30;;
7917;SDS011;4004;42.624;23.386;2023-08-12T12:24:30;1.30;;;1.20;;
7917;SDS011;4004;42.624;23.386;2023-08-12T12:26:57;1.70;;;1.50;;
7917;SDS011;4004;42.624;23.386;2023-08-12T12:29:25;2.57;;;1.60;;
7917;SDS011;4004;42.624;23.386;2023-08-12T12:31:52;3.10;;;1.60;;
7917;SDS011;4004;42.624;23.386;2023-08-12T12:34:19;2.00;;;1.63;;
7917;SDS011;4004;42.624;23.386;2023-08-12T12:36:46;1.60;;;1.20;;
7917;SDS011;4004;42.624;23.386;2023-08-12T12:39:13;1.50;;;1.30;;
7917;SDS011;4004;42.624;23.386;2023-08-12T12:41:39;4.50;;;1.60;;
7917;SDS011;4004;42.624;23.386;2023-08-12T12:44:06;1.63;;;1.50;;
7917;SDS011;4004;42.624;23.386;2023-08-12T12:46:34;1.80;;;1.50;;
7917;SDS011;4004;42.624;23.386;2023-08-12T12:49:01;1.60;;;1.30;;
7917;SDS011;4004;42.624;23.386;2023-08-12T12:51:28;1.80;;;1.43;;
7917;SDS011;4004;42.624;23.386;2023-08-12T12:53:55;1.50;;;1.40;;
7917;SDS011;4004;42.624;23.386;2023-08-12T12:56:22;1.90;;;1.70;;
7917;SDS011;4004;42.624;23.386;2023-08-12T12:58:49;3.47;;;1.50;;
7917;SDS011;4004;42.624;23.386;2023-08-12T13:01:15;4.03;;;1.80;;
7917;SDS011;4004;42.624;23.386;2023-08-12T13:03:43;2.30;;;1.83;;
7917;SDS011;4004;42.624;23.386;2023-08-12T13:06:10;3.10;;;1.60;;
7917;SDS011;4004;42.624;23.386;2023-08-12T13:08:37;1.33;;;1.23;;
7917;SDS011;4004;42.624;23.386;2023-08-12T13:11:04;2.13;;;1.50;;
7917;SDS011;4004;42.624;23.386;2023-08-12T13:13:30;1.70;;;1.60;;
7917;SDS011;4004;42.624;23.386;2023-08-12T13:15:57;4.00;;;1.57;;
7917;SDS011;4004;42.624;23.386;2023-08-12T13:18:24;3.33;;;1.77;;
7917;SDS011;4004;42.624;23.386;2023-08-12T13:20:52;2.00;;;1.67;;
7917;SDS011;4004;42.624;23.386;2023-08-12T13:23:19;6.17;;;1.90;;
7917;SDS011;4004;42.624;23.386;2023-08-12T13:25:46;2.07;;;1.60;;
7917;SDS011;4004;42.624;23.386;2023-08-12T13:28:12;3.17;;;1.70;;
7917;SDS011;4004;42.624;23.386;2023-08-12T13:30:39;1.97;;;1.80;;
7917;SDS011;4004;42.624;23.386;2023-08-12T13:33:06;3.07;;;1.60;;
7917;SDS011;4004;42.624;23.386;2023-08-12T13:35:33;2.47;;;1.70;;
7917;SDS011;4004;42.624;23.386;2023-08-12T13:38:01;3.70;;;1.80;;
7917;SDS011;4004;42.624;23.386;2023-08-12T13:40:28;3.83;;;1.60;;
7917;SDS011;4004;42.624;23.386;2023-08-12T13:42:55;2.63;;;1.83;;
7917;SDS011;4004;42.624;23.386;2023-08-12T13:45:22;2.53;;;1.80;;
7917;SDS011;4004;42.624;23.386;2023-08-12T13:47:49;6.10;;;1.77;;
7917;SDS011;4004;42.624;23.386;2023-08-12T13:50:16;1.93;;;1.70;;
7917;SDS011;4004;42.624;23.386;2023-08-12T13:52:44;1.97;;;1.63;;
7917;SDS011;4004;42.624;23.386;2023-08-12T13:55:13;1.70;;;1.60;;
7917;SDS011;4004;42.624;23.386;2023-08-12T13:57:40;1.93;;;1.70;;
7917;SDS011;4004;42.624;23.386;2023-08-12T14:00:07;1.87;;;1.60;;
7917;SDS011;4004;42.624;23.386;2023-08-12T14:02:35;1.80;;;1.70;;
7917;SDS011;4004;42.624;23.386;2023-08-12T14:05:03;1.80;;;1.70;;
7917;SDS011;4004;42.624;23.386;2023-08-12T14:07:30;4.40;;;1.80;;
7917;SDS011;4004;42.624;23.386;2023-08-12T14:09:57;2.27;;;1.50;;
7917;SDS011;4004;42.624;23.386;2023-08-12T14:12:25;2.17;;;1.77;;
7917;SDS011;4004;42.624;23.386;2023-08-12T14:14:53;2.83;;;2.00;;
7917;SDS011;4004;42.624;23.386;2023-08-12T14:17:19;2.10;;;1.30;;
7917;SDS011;4004;42.624;23.386;2023-08-12T14:19:48;2.90;;;1.63;;
7917;SDS011;4004;42.624;23.386;2023-08-12T14:22:15;1.70;;;1.57;;
7917;SDS011;4004;42.624;23.386;2023-08-12T14:24:42;6.37;;;2.00;;
7917;SDS011;4004;42.624;23.386;2023-08-12T14:27:10;2.77;;;1.50;;
7917;SDS011;4004;42.624;23.386;2023-08-12T14:29:38;1.93;;;1.50;;
7917;SDS011;4004;42.624;23.386;2023-08-12T14:32:05;3.00;;;1.60;;
7917;SDS011;4004;42.624;23.386;2023-08-12T14:34:32;1.70;;;1.50;;
7917;SDS011;4004;42.624;23.386;2023-08-12T14:36:59;2.60;;;1.83;;
7917;SDS011;4004;42.624;23.386;2023-08-12T14:39:26;2.57;;;1.73;;
7917;SDS011;4004;42.624;23.386;2023-08-12T14:41:52;3.23;;;2.00;;
7917;SDS011;4004;42.624;23.386;2023-08-12T14:44:19;2.33;;;1.63;;
7917;SDS011;4004;42.624;23.386;2023-08-12T14:46:48;3.33;;;1.83;;
7917;SDS011;4004;42.624;23.386;2023-08-12T14:49:14;1.63;;;1.53;;
7917;SDS011;4004;42.624;23.386;2023-08-12T14:51:41;1.43;;;1.33;;
7917;SDS011;4004;42.624;23.386;2023-08-12T14:54:08;3.50;;;1.93;;
7917;SDS011;4004;42.624;23.386;2023-08-12T14:56:35;3.43;;;1.80;;
7917;SDS011;4004;42.624;23.386;2023-08-12T14:59:01;3.20;;;2.03;;
7917;SDS011;4004;42.624;23.386;2023-08-12T15:01:29;1.60;;;1.50;;